createdAt,value
2023-01-19T00:01:00.179Z,99946.44
2023-01-19T00:03:27.640Z,99949.94
2023-01-19T00:05:54.972Z,99965.63
2023-01-19T00:08:22.135Z,99967.94
2023-01-19T00:10:53.471Z,99968.91
2023-01-19T00:13:20.851Z,99969.13
2023-01-19T00:15:48.193Z,99956.84
2023-01-19T00:18:15.562Z,99965.91
2023-01-19T00:20:43.726Z,99959.59
2023-01-19T00:23:11.223Z,99964.78
2023-01-19T00:25:42.768Z,99962.50
2023-01-19T00:28:13.864Z,99961.81
2023-01-19T00:30:42.146Z,99966.50
2023-01-19T00:33:09.956Z,99972.84
2023-01-19T00:35:36.866Z,99971.16
2023-01-19T00:38:03.828Z,99982.09
2023-01-19T00:40:31.063Z,99969.09
2023-01-19T00:42:58.978Z,99975.31
2023-01-19T00:45:26.563Z,99967.50
2023-01-19T00:47:57.441Z,99978.19
2023-01-19T00:50:26.909Z,99979.00
2023-01-19T00:52:55.507Z,99967.75
2023-01-19T00:55:23.608Z,99975.72
2023-01-19T00:57:51.608Z,99969.22
2023-01-19T01:00:20.206Z,99973.03
2023-01-19T01:02:48.317Z,99972.22
2023-01-19T01:05:16.591Z,99978.44
2023-01-19T01:07:47.280Z,99984.50
2023-01-19T01:10:26.435Z,99987.94
2023-01-19T01:12:57.416Z,99982.78
2023-01-19T01:15:26.883Z,100003.13
2023-01-19T01:17:55.044Z,100005.81
2023-01-19T01:20:28.212Z,100010.38
2023-01-19T01:22:56.891Z,100014.69
2023-01-19T01:25:25.982Z,100016.38
2023-01-19T01:27:53.769Z,100021.75
2023-01-19T01:30:21.854Z,100034.25
2023-01-19T01:32:49.344Z,100038.50
2023-01-19T01:35:16.843Z,100027.69
2023-01-19T01:37:43.823Z,100043.13
2023-01-19T01:40:15.288Z,100041.88
2023-01-19T01:42:42.720Z,100047.38
2023-01-19T01:45:35.608Z,100043.13
2023-01-19T01:48:22.639Z,100030.84
2023-01-19T01:51:19.905Z,100037.03
2023-01-19T01:53:51.517Z,100053.34
2023-01-19T01:56:24.045Z,100050.72
2023-01-19T01:58:51.743Z,100058.91
2023-01-19T02:01:37.677Z,100068.38
2023-01-19T02:04:05.156Z,100078.00
2023-01-19T02:06:32.521Z,100085.50
2023-01-19T02:09:23.800Z,100089.28
2023-01-19T02:12:10.168Z,100105.13
2023-01-19T02:14:37.471Z,100099.38
2023-01-19T02:17:05.097Z,100104.13
2023-01-19T02:19:46.558Z,100104.63
2023-01-19T02:22:28.803Z,100103.50
2023-01-19T02:24:55.660Z,100095.56
2023-01-19T02:27:22.625Z,100092.81
2023-01-19T02:29:49.592Z,100086.97
2023-01-19T02:32:16.436Z,100093.56
2023-01-19T02:34:43.269Z,100100.44
2023-01-19T02:37:15.066Z,100090.59
2023-01-19T02:39:45.635Z,100092.88
2023-01-19T02:42:18.704Z,100108.09
2023-01-19T02:44:47.643Z,100098.53
2023-01-19T02:47:14.957Z,100096.03
2023-01-19T02:49:41.933Z,100097.28
2023-01-19T02:52:16.026Z,100090.97
2023-01-19T02:54:50.246Z,100101.78
2023-01-19T02:57:32.295Z,100101.75
2023-01-19T03:00:21.445Z,100108.56
2023-01-19T03:03:23.748Z,100099.66
2023-01-19T03:06:25.993Z,100113.31
2023-01-19T03:08:52.712Z,100107.34
2023-01-19T03:11:19.699Z,100103.19
2023-01-19T03:14:03.118Z,100122.28
2023-01-19T03:16:48.679Z,100125.28
2023-01-19T03:19:24.238Z,100131.13
2023-01-19T03:21:56.608Z,100127.38
2023-01-19T03:24:24.607Z,100124.75
2023-01-19T03:26:58.906Z,100131.88
2023-01-19T03:29:28.852Z,100133.47
2023-01-19T03:31:58.257Z,100124.41
2023-01-19T03:34:26.134Z,100130.56
2023-01-19T03:36:55.431Z,100136.72
2023-01-19T03:39:24.273Z,100135.56
2023-01-19T03:41:55.312Z,100140.72
2023-01-19T03:44:24.034Z,100147.91
2023-01-19T03:46:51.481Z,100139.31
2023-01-19T03:49:19.111Z,100146.44
2023-01-19T03:51:46.320Z,100151.50
2023-01-19T03:54:13.076Z,100165.03
2023-01-19T03:56:40.555Z,100156.00
2023-01-19T03:59:07.909Z,100157.72
2023-01-19T04:01:35.457Z,100160.63
2023-01-19T04:04:02.518Z,100154.09
2023-01-19T04:06:29.717Z,100155.47
2023-01-19T04:08:56.955Z,100157.44
2023-01-19T04:11:24.301Z,100158.31
2023-01-19T04:13:52.041Z,100163.25
2023-01-19T04:16:21.402Z,100160.66
2023-01-19T04:18:48.899Z,100173.69
2023-01-19T04:21:17.125Z,100173.53
2023-01-19T04:23:47.382Z,100187.41
2023-01-19T04:26:14.834Z,100176.47
2023-01-19T04:28:42.145Z,100181.72
2023-01-19T04:31:09.825Z,100179.31
2023-01-19T04:33:37.250Z,100180.63
2023-01-19T04:36:04.927Z,100185.84
2023-01-19T04:38:32.057Z,100196.22
2023-01-19T04:40:59.509Z,100194.16
2023-01-19T04:43:26.597Z,100196.09
2023-01-19T04:45:53.984Z,100206.47
2023-01-19T04:48:21.171Z,100197.66
2023-01-19T04:50:48.324Z,100212.97
2023-01-19T04:53:16.725Z,100193.06
2023-01-19T04:55:44.187Z,100205.41
2023-01-19T04:58:11.316Z,100203.94
2023-01-19T05:00:38.865Z,100201.63
2023-01-19T05:03:06.409Z,100211.75
2023-01-19T05:05:34.508Z,100211.03
2023-01-19T05:08:01.677Z,100209.09
2023-01-19T05:10:29.395Z,100214.41
2023-01-19T05:12:56.637Z,100213.00
2023-01-19T05:15:23.917Z,100223.81
2023-01-19T05:17:51.115Z,100213.91
2023-01-19T05:20:19.097Z,100214.25
2023-01-19T05:22:50.954Z,100209.50
2023-01-19T05:25:18.912Z,100223.50
2023-01-19T05:27:46.144Z,100219.00
2023-01-19T05:30:14.566Z,100228.06
2023-01-19T05:32:41.979Z,100231.72
2023-01-19T05:35:10.149Z,100233.03
2023-01-19T05:37:37.553Z,100231.50
2023-01-19T05:40:05.655Z,100237.69
2023-01-19T05:42:33.106Z,100242.16
2023-01-19T05:45:00.916Z,100250.31
2023-01-19T05:47:31.184Z,100248.28
2023-01-19T05:49:58.917Z,100248.44
2023-01-19T05:52:26.567Z,100247.09
2023-01-19T05:54:55.327Z,100255.84
2023-01-19T05:57:22.932Z,100250.34
2023-01-19T05:59:50.910Z,100262.19
2023-01-19T06:02:18.326Z,100256.56
2023-01-19T06:04:45.495Z,100264.84
2023-01-19T06:07:12.897Z,100268.94
2023-01-19T06:09:40.397Z,100264.91
2023-01-19T06:12:07.818Z,100259.38
2023-01-19T06:14:37.295Z,100262.16
2023-01-19T06:17:06.332Z,100260.84
2023-01-19T06:19:35.055Z,100269.28
2023-01-19T06:22:03.139Z,100273.75
2023-01-19T06:24:30.664Z,100280.41
2023-01-19T06:26:57.956Z,100279.91
2023-01-19T06:29:27.042Z,100288.03
2023-01-19T06:31:55.550Z,100283.66
2023-01-19T06:34:23.456Z,100291.91
2023-01-19T06:36:51.640Z,100295.47
2023-01-19T06:39:18.320Z,100298.38
2023-01-19T06:41:45.608Z,100299.50
2023-01-19T06:44:12.605Z,100303.19
2023-01-19T06:46:40.235Z,100303.16
2023-01-19T06:49:07.846Z,100318.41
2023-01-19T06:51:35.322Z,100324.03
2023-01-19T06:54:02.974Z,100323.09
2023-01-19T06:56:30.344Z,100331.72
2023-01-19T06:58:57.230Z,100335.56
2023-01-19T07:01:24.170Z,100342.38
2023-01-19T07:03:51.893Z,100338.31
2023-01-19T07:06:19.426Z,100349.97
2023-01-19T07:08:46.776Z,100351.09
2023-01-19T07:11:24.688Z,100351.09
2023-01-19T07:13:57.237Z,100356.25
2023-01-19T07:16:24.744Z,100364.38
2023-01-19T07:18:52.072Z,100372.81
2023-01-19T07:21:19.704Z,100368.94
2023-01-19T07:23:51.320Z,100378.66
2023-01-19T07:26:21.581Z,100386.78
2023-01-19T07:28:49.345Z,100383.66
2023-01-19T07:31:17.220Z,100386.41
2023-01-19T07:33:45.344Z,100390.50
2023-01-19T07:36:12.920Z,100389.03
2023-01-19T07:38:40.298Z,100393.91
2023-01-19T07:41:10.065Z,100393.03
2023-01-19T07:43:37.097Z,100389.66
2023-01-19T07:46:05.902Z,100398.25
2023-01-19T07:48:33.200Z,100398.25
2023-01-19T07:51:04.621Z,100412.28
2023-01-19T07:53:32.625Z,100408.44
2023-01-19T07:55:59.708Z,100414.56
2023-01-19T07:58:27.111Z,100423.00
2023-01-19T08:00:54.418Z,100431.72
2023-01-19T08:03:21.822Z,100441.13
2023-01-19T08:05:52.929Z,100443.91
2023-01-19T08:08:20.517Z,100445.81
2023-01-19T08:10:50.755Z,100437.41
2023-01-19T08:13:18.877Z,100452.16
2023-01-19T08:15:49.042Z,100462.53
2023-01-19T08:18:16.312Z,100453.44
2023-01-19T08:20:43.667Z,100468.34
2023-01-19T08:23:11.270Z,100463.94
2023-01-19T08:25:44.636Z,100479.81
2023-01-19T08:28:14.540Z,100481.94
2023-01-19T08:30:43.893Z,100483.41
2023-01-19T08:33:14.416Z,100482.59
2023-01-19T08:35:43.615Z,100484.69
2023-01-19T08:38:11.406Z,100481.31
2023-01-19T08:40:41.159Z,100485.19
2023-01-19T08:43:16.739Z,100488.44
2023-01-19T08:45:48.920Z,100489.25
2023-01-19T08:48:18.344Z,100493.25
2023-01-19T08:50:48.407Z,100499.28
2023-01-19T08:53:15.989Z,100498.16
2023-01-19T08:55:44.650Z,100496.53
2023-01-19T08:58:11.900Z,100506.75
2023-01-19T09:00:40.984Z,100502.19
2023-01-19T09:03:11.202Z,100506.25
2023-01-19T09:05:41.057Z,100507.22
2023-01-19T09:08:13.342Z,100500.25
2023-01-19T09:10:46.508Z,100505.59
2023-01-19T09:13:14.046Z,100516.47
2023-01-19T09:15:41.873Z,100511.59
2023-01-19T09:18:14.838Z,100514.34
2023-01-19T09:20:47.038Z,100519.66
2023-01-19T09:23:17.609Z,100523.88
2023-01-19T09:25:46.863Z,100521.47
2023-01-19T09:28:16.181Z,100520.63
2023-01-19T09:30:44.654Z,100515.91
2023-01-19T09:33:14.052Z,100526.72
2023-01-19T09:35:42.236Z,100519.28
2023-01-19T09:38:11.318Z,100528.03
2023-01-19T09:40:43.911Z,100522.63
2023-01-19T09:43:23.692Z,100528.13
2023-01-19T09:45:57.549Z,100530.91
2023-01-19T09:48:38.241Z,100529.94
2023-01-19T09:51:08.856Z,100534.72
2023-01-19T09:54:05.672Z,100542.97
2023-01-19T09:56:33.406Z,100540.31
2023-01-19T09:59:01.800Z,100541.72
2023-01-19T10:01:35.591Z,100540.28
2023-01-19T10:04:24.257Z,100539.97
2023-01-19T10:06:53.639Z,100545.72
2023-01-19T10:09:42.233Z,100553.50
2023-01-19T10:12:19.769Z,100544.06
2023-01-19T10:14:54.197Z,100551.00
2023-01-19T10:17:43.965Z,100550.25
2023-01-19T10:20:18.606Z,100550.47
2023-01-19T10:22:49.515Z,100558.72
2023-01-19T10:25:20.414Z,100553.25
2023-01-19T10:27:48.055Z,100557.22
2023-01-19T10:30:23.495Z,100555.13
2023-01-19T10:32:51.572Z,100551.69
2023-01-19T10:35:24.841Z,100546.63
2023-01-19T10:37:56.425Z,100547.44
2023-01-19T10:40:50.246Z,100549.28
2023-01-19T10:43:51.215Z,100552.22
2023-01-19T10:46:18.958Z,100557.78
2023-01-19T10:48:48.946Z,100548.66
2023-01-19T10:51:16.603Z,100564.31
2023-01-19T10:53:57.013Z,100563.56
2023-01-19T10:56:28.518Z,100564.78
2023-01-19T10:58:55.895Z,100564.34
2023-01-19T11:01:28.666Z,100575.34
2023-01-19T11:04:00.286Z,100568.25
2023-01-19T11:06:30.852Z,100571.69
2023-01-19T11:09:14.847Z,100571.66
2023-01-19T11:11:48.029Z,100569.19
2023-01-19T11:14:19.616Z,100571.69
2023-01-19T11:16:49.599Z,100567.06
2023-01-19T11:19:25.475Z,100568.19
2023-01-19T11:21:53.411Z,100571.75
2023-01-19T11:24:21.101Z,100572.78
2023-01-19T11:26:58.059Z,100574.19
2023-01-19T11:29:26.728Z,100570.44
2023-01-19T11:31:54.982Z,100573.69
2023-01-19T11:34:34.220Z,100573.94
2023-01-19T11:37:04.713Z,100564.53
2023-01-19T11:39:45.605Z,100568.91
2023-01-19T11:42:13.315Z,100553.78
2023-01-19T11:45:05.655Z,100564.03
2023-01-19T11:47:44.646Z,100565.41
2023-01-19T11:50:12.115Z,100570.34
2023-01-19T11:52:49.038Z,100571.84
2023-01-19T11:55:42.341Z,100567.44
2023-01-19T11:58:15.581Z,100565.50
2023-01-19T12:01:05.729Z,100566.97
2023-01-19T12:03:46.220Z,100565.72
2023-01-19T12:06:22.210Z,100566.31
2023-01-19T12:08:57.869Z,100569.69
2023-01-19T12:11:34.169Z,100564.25
2023-01-19T12:14:02.699Z,100561.94
2023-01-19T12:16:31.618Z,100557.00
2023-01-19T12:19:02.077Z,100561.00
2023-01-19T12:21:29.710Z,100560.13
2023-01-19T12:24:13.833Z,100570.91
2023-01-19T12:26:56.734Z,100571.25
2023-01-19T12:29:27.550Z,100566.06
2023-01-19T12:32:13.341Z,100566.75
2023-01-19T12:34:46.956Z,100571.13
2023-01-19T12:37:36.945Z,100576.94
2023-01-19T12:40:28.399Z,100570.28
2023-01-19T12:43:04.219Z,100566.84
2023-01-19T12:45:36.934Z,100571.44
2023-01-19T12:48:03.900Z,100563.09
2023-01-19T12:50:40.197Z,100563.91
2023-01-19T12:53:18.289Z,100570.19
2023-01-19T12:55:47.660Z,100564.00
2023-01-19T12:58:18.953Z,100571.66
2023-01-19T13:00:48.614Z,100576.38
2023-01-19T13:03:18.505Z,100571.47
2023-01-19T13:05:52.765Z,100571.63
2023-01-19T13:08:25.789Z,100572.97
2023-01-19T13:11:11.111Z,100571.53
2023-01-19T13:14:07.046Z,100571.19
2023-01-19T13:16:36.616Z,100577.56
2023-01-19T13:19:06.868Z,100578.47
2023-01-19T13:21:41.243Z,100570.69
2023-01-19T13:24:15.210Z,100576.47
2023-01-19T13:26:43.491Z,100579.59
2023-01-19T13:29:33.827Z,100581.38
2023-01-19T13:32:06.784Z,100581.56
2023-01-19T13:34:43.127Z,100580.13
2023-01-19T13:37:21.987Z,100586.63
2023-01-19T13:39:50.249Z,100585.00
2023-01-19T13:42:25.917Z,100581.16
2023-01-19T13:44:53.919Z,100587.03
2023-01-19T13:47:33.788Z,100588.03
2023-01-19T13:50:01.369Z,100591.59
2023-01-19T13:52:29.758Z,100588.53
2023-01-19T13:55:02.685Z,100598.97
2023-01-19T13:57:40.105Z,100596.22
2023-01-19T14:00:16.842Z,100603.53
2023-01-19T14:03:18.066Z,100601.31
2023-01-19T14:05:45.804Z,100606.84
2023-01-19T14:08:15.458Z,100609.84
2023-01-19T14:11:05.396Z,100610.41
2023-01-19T14:13:35.331Z,100618.78
2023-01-19T14:16:08.799Z,100618.66
2023-01-19T14:18:36.724Z,100626.66
2023-01-19T14:21:07.961Z,100624.41
2023-01-19T14:23:52.536Z,100624.19
2023-01-19T14:26:38.139Z,100633.41
2023-01-19T14:29:24.023Z,100637.03
2023-01-19T14:31:51.876Z,100642.13
2023-01-19T14:34:39.730Z,100639.03
2023-01-19T14:37:27.524Z,100639.34
2023-01-19T14:40:13.503Z,100635.25
2023-01-19T14:42:43.594Z,100640.66
2023-01-19T14:45:25.858Z,100643.16
2023-01-19T14:48:05.671Z,100642.84
2023-01-19T14:50:35.832Z,100637.38
2023-01-19T14:53:05.868Z,100642.91
2023-01-19T14:55:49.846Z,100654.13
2023-01-19T14:58:19.441Z,100647.84
2023-01-19T15:00:48.454Z,100653.06
2023-01-19T15:03:16.155Z,100658.06
2023-01-19T15:05:45.715Z,100652.25
2023-01-19T15:08:16.514Z,100653.09
2023-01-19T15:10:44.682Z,100655.03
2023-01-19T15:13:17.933Z,100656.97
2023-01-19T15:15:45.453Z,100649.34
2023-01-19T15:18:16.874Z,100658.25
2023-01-19T15:20:44.163Z,100658.78
2023-01-19T15:23:12.260Z,100658.44
2023-01-19T15:25:39.714Z,100662.00
2023-01-19T15:28:22.143Z,100665.72
2023-01-19T15:30:49.651Z,100667.84
2023-01-19T15:33:26.304Z,100666.53
2023-01-19T15:35:54.135Z,100667.81
2023-01-19T15:38:21.252Z,100676.22
2023-01-19T15:40:51.426Z,100683.72
2023-01-19T15:43:19.058Z,100684.53
2023-01-19T15:46:01.047Z,100682.91
2023-01-19T15:48:28.583Z,100682.91
2023-01-19T15:50:55.883Z,100685.47
2023-01-19T15:53:27.561Z,100683.19
2023-01-19T15:55:57.024Z,100684.06
2023-01-19T15:58:25.136Z,100690.84
2023-01-19T16:00:57.587Z,100683.03
2023-01-19T16:03:25.814Z,100686.59
2023-01-19T16:05:53.380Z,100694.69
2023-01-19T16:08:22.354Z,100687.56
2023-01-19T16:10:50.063Z,100695.50
2023-01-19T16:13:17.405Z,100693.06
2023-01-19T16:15:44.692Z,100695.13
2023-01-19T16:18:11.937Z,100696.94
2023-01-19T16:20:39.313Z,100697.94
2023-01-19T16:23:15.115Z,100701.78
2023-01-19T16:25:42.738Z,100706.09
2023-01-19T16:28:12.179Z,100710.22
2023-01-19T16:30:39.424Z,100702.59
2023-01-19T16:33:06.601Z,100708.34
2023-01-19T16:35:37.426Z,100708.84
2023-01-19T16:38:04.654Z,100712.16
2023-01-19T16:40:31.742Z,100721.19
2023-01-19T16:42:59.211Z,100724.69
2023-01-19T16:45:26.481Z,100731.22
2023-01-19T16:47:53.689Z,100742.03
2023-01-19T16:50:20.953Z,100742.31
2023-01-19T16:52:48.153Z,100745.59
2023-01-19T16:55:15.263Z,100745.78
2023-01-19T16:57:42.582Z,100743.22
2023-01-19T17:00:10.734Z,100746.66
2023-01-19T17:02:39.202Z,100749.03
2023-01-19T17:05:07.279Z,100748.75
2023-01-19T17:07:34.635Z,100748.38
2023-01-19T17:10:02.192Z,100755.41
2023-01-19T17:12:32.158Z,100749.41
2023-01-19T17:15:01.195Z,100758.19
2023-01-19T17:17:28.368Z,100757.66
2023-01-19T17:19:55.599Z,100748.94
2023-01-19T17:22:22.849Z,100753.53
2023-01-19T17:24:50.114Z,100753.97
2023-01-19T17:27:17.691Z,100761.50
2023-01-19T17:29:46.852Z,100768.16
2023-01-19T17:32:15.373Z,100768.44
2023-01-19T17:34:42.667Z,100766.22
2023-01-19T17:37:10.041Z,100765.28
2023-01-19T17:39:37.388Z,100770.72
2023-01-19T17:42:04.639Z,100763.91
2023-01-19T17:44:31.760Z,100766.28
2023-01-19T17:47:00.024Z,100777.09
2023-01-19T17:49:27.275Z,100777.22
2023-01-19T17:51:56.061Z,100777.41
2023-01-19T17:54:23.319Z,100781.28
2023-01-19T17:56:51.273Z,100779.16
2023-01-19T17:59:18.471Z,100782.03
2023-01-19T18:01:46.811Z,100799.50
2023-01-19T18:04:14.337Z,100802.47
2023-01-19T18:06:41.629Z,100813.22
2023-01-19T18:09:12.149Z,100813.66
2023-01-19T18:11:39.619Z,100802.34
2023-01-19T18:14:07.005Z,100795.84
2023-01-19T18:16:34.685Z,100803.75
2023-01-19T18:19:01.919Z,100807.31
2023-01-19T18:21:30.673Z,100808.03
2023-01-19T18:24:02.650Z,100816.38
2023-01-19T18:26:31.798Z,100831.53
2023-01-19T18:28:59.075Z,100832.84
2023-01-19T18:31:27.693Z,100827.47
2023-01-19T18:33:55.292Z,100847.91
2023-01-19T18:36:22.543Z,100846.16
2023-01-19T18:38:50.318Z,100843.41
2023-01-19T18:41:19.310Z,100837.28
2023-01-19T18:43:47.362Z,100845.94
2023-01-19T18:46:15.245Z,100842.34
2023-01-19T18:48:42.570Z,100848.50
2023-01-19T18:51:12.046Z,100835.44
2023-01-19T18:53:40.053Z,100841.88
2023-01-19T18:56:08.210Z,100842.41
2023-01-19T18:58:37.892Z,100853.09
2023-01-19T19:01:06.135Z,100844.19
2023-01-19T19:03:33.270Z,100841.19
2023-01-19T19:06:05.262Z,100852.69
2023-01-19T19:08:33.942Z,100859.09
2023-01-19T19:11:01.088Z,100856.63
2023-01-19T19:13:28.392Z,100854.72
2023-01-19T19:16:05.775Z,100846.25
2023-01-19T19:18:34.839Z,100850.72
2023-01-19T19:21:06.769Z,100855.34
2023-01-19T19:23:34.466Z,100853.94
2023-01-19T19:26:07.085Z,100864.38
2023-01-19T19:28:36.558Z,100868.56
2023-01-19T19:31:12.792Z,100863.34
2023-01-19T19:33:41.070Z,100872.06
2023-01-19T19:36:09.302Z,100875.81
2023-01-19T19:38:37.247Z,100880.69
2023-01-19T19:41:06.151Z,100877.63
2023-01-19T19:43:34.146Z,100880.28
2023-01-19T19:46:04.118Z,100888.56
2023-01-19T19:48:31.780Z,100879.97
2023-01-19T19:51:19.192Z,100880.97
2023-01-19T19:53:49.617Z,100885.22
2023-01-19T19:56:21.460Z,100882.00
2023-01-19T19:58:50.290Z,100887.78
2023-01-19T20:01:24.137Z,100888.31
2023-01-19T20:03:53.569Z,100903.16
2023-01-19T20:06:23.112Z,100897.69
2023-01-19T20:08:52.289Z,100899.97
2023-01-19T20:11:22.081Z,100899.63
2023-01-19T20:13:49.531Z,100904.59
2023-01-19T20:16:19.167Z,100913.94
2023-01-19T20:18:50.945Z,100912.44
2023-01-19T20:21:19.962Z,100917.31
2023-01-19T20:23:48.306Z,100915.63
2023-01-19T20:26:17.550Z,100917.09
2023-01-19T20:28:45.564Z,100924.13
2023-01-19T20:31:14.925Z,100924.25
2023-01-19T20:33:42.909Z,100921.59
2023-01-19T20:36:10.938Z,100921.38
2023-01-19T20:38:39.124Z,100920.34
2023-01-19T20:41:07.737Z,100928.63
2023-01-19T20:43:35.564Z,100933.38
2023-01-19T20:46:03.400Z,100926.56
2023-01-19T20:48:30.792Z,100933.44
2023-01-19T20:51:02.159Z,100941.91
2023-01-19T20:53:29.854Z,100955.16
2023-01-19T20:55:56.907Z,100951.81
2023-01-19T20:58:24.474Z,100957.16
2023-01-19T21:00:52.547Z,100959.25
2023-01-19T21:03:19.890Z,100949.91
2023-01-19T21:05:48.617Z,100960.31
2023-01-19T21:08:17.617Z,100958.06
2023-01-19T21:10:46.398Z,100966.47
2023-01-19T21:13:13.794Z,100967.25
2023-01-19T21:15:40.844Z,100980.09
2023-01-19T21:18:07.837Z,100977.03
2023-01-19T21:20:35.279Z,100982.53
2023-01-19T21:23:02.478Z,100987.28
2023-01-19T21:25:29.839Z,100989.28
2023-01-19T21:27:57.013Z,100985.94
2023-01-19T21:30:24.375Z,100990.00
2023-01-19T21:32:51.367Z,100993.56
2023-01-19T21:35:18.952Z,100988.59
2023-01-19T21:37:47.472Z,100990.91
2023-01-19T21:40:15.186Z,100994.63
2023-01-19T21:42:42.610Z,101001.38
2023-01-19T21:45:10.197Z,101003.94
2023-01-19T21:47:37.477Z,101001.66
2023-01-19T21:50:05.661Z,101004.75
2023-01-19T21:52:32.946Z,100999.47
2023-01-19T21:55:00.437Z,100999.28
2023-01-19T21:57:27.578Z,101002.41
2023-01-19T21:59:54.659Z,100999.47
2023-01-19T22:02:37.717Z,101001.97
2023-01-19T22:05:06.887Z,101000.63
2023-01-19T22:07:34.173Z,101009.16
2023-01-19T22:10:01.708Z,101000.75
2023-01-19T22:12:29.259Z,101001.88
2023-01-19T22:14:56.169Z,101007.94
2023-01-19T22:17:23.219Z,101012.28
2023-01-19T22:19:50.090Z,101018.00
2023-01-19T22:22:17.407Z,101017.44
2023-01-19T22:24:46.799Z,101032.88
2023-01-19T22:27:13.801Z,101039.63
2023-01-19T22:29:41.368Z,101028.56
2023-01-19T22:32:08.762Z,101034.59
2023-01-19T22:34:35.896Z,101029.38
2023-01-19T22:37:03.144Z,101035.16
2023-01-19T22:39:30.419Z,101034.41
2023-01-19T22:41:57.768Z,101032.94
2023-01-19T22:44:25.018Z,101036.31
2023-01-19T22:46:55.165Z,101037.13
2023-01-19T22:49:22.698Z,101034.66
2023-01-19T22:51:50.097Z,101038.78
2023-01-19T22:54:17.658Z,101038.16
2023-01-19T22:56:46.047Z,101033.44
2023-01-19T22:59:13.509Z,101047.03
2023-01-19T23:01:42.835Z,101048.03
2023-01-19T23:04:14.959Z,101051.53
2023-01-19T23:06:42.828Z,101066.28
2023-01-19T23:09:14.699Z,101070.84
2023-01-19T23:11:50.288Z,101074.38
2023-01-19T23:14:20.176Z,101085.91
2023-01-19T23:16:48.057Z,101074.63
2023-01-19T23:19:17.258Z,101084.19
2023-01-19T23:21:45.251Z,101081.03
2023-01-19T23:24:12.528Z,101087.16
2023-01-19T23:26:39.863Z,101083.94
2023-01-19T23:29:12.121Z,101080.63
2023-01-19T23:31:42.252Z,101073.44
2023-01-19T23:34:10.858Z,101073.44
2023-01-19T23:36:38.907Z,101075.38
2023-01-19T23:39:11.433Z,101081.38
2023-01-19T23:41:38.365Z,101075.66
2023-01-19T23:44:05.293Z,101072.63
2023-01-19T23:46:32.284Z,101074.31
2023-01-19T23:48:59.284Z,101082.09
2023-01-19T23:51:28.558Z,101082.72
2023-01-19T23:53:56.459Z,101090.19
2023-01-19T23:56:26.017Z,101087.75
2023-01-19T23:58:58.310Z,101080.94
